createdAt,value
2023-01-03T00:00:53.913Z,96.16
2023-01-03T00:03:20.671Z,95.72
2023-01-03T00:05:48.353Z,95.00
2023-01-03T00:08:15.656Z,95.21
2023-01-03T00:10:42.300Z,95.74
2023-01-03T00:13:08.772Z,95.47
2023-01-03T00:15:36.265Z,95.36
2023-01-03T00:18:03.454Z,95.74
2023-01-03T00:20:30.090Z,95.42
2023-01-03T00:22:56.711Z,95.31
2023-01-03T00:25:23.459Z,95.67
2023-01-03T00:27:50.085Z,96.19
2023-01-03T00:30:16.854Z,96.19
2023-01-03T00:32:43.374Z,96.41
2023-01-03T00:35:10.021Z,96.23
2023-01-03T00:37:36.544Z,96.11
2023-01-03T00:40:04.359Z,96.55
2023-01-03T00:42:51.025Z,96.87
2023-01-03T00:45:20.080Z,96.34
2023-01-03T00:47:47.663Z,97.08
2023-01-03T00:50:14.116Z,96.77
2023-01-03T00:52:40.636Z,96.90
2023-01-03T00:55:07.646Z,96.69
2023-01-03T00:57:34.107Z,96.52
2023-01-03T01:00:00.714Z,96.79
2023-01-03T01:02:27.542Z,97.00
2023-01-03T01:04:54.341Z,97.00
2023-01-03T01:07:20.976Z,96.88
2023-01-03T01:09:47.617Z,97.04
2023-01-03T01:12:14.075Z,96.24
2023-01-03T01:14:40.720Z,96.71
2023-01-03T01:17:08.519Z,96.10
2023-01-03T01:19:39.059Z,96.22
2023-01-03T01:22:06.638Z,95.93
2023-01-03T01:24:33.633Z,95.85
2023-01-03T01:27:00.528Z,96.00
2023-01-03T01:29:27.634Z,95.58
2023-01-03T01:31:54.275Z,95.96
2023-01-03T01:34:20.884Z,95.94
2023-01-03T01:36:48.083Z,95.58
2023-01-03T01:39:19.087Z,95.54
2023-01-03T01:42:05.479Z,95.29
2023-01-03T01:44:44.812Z,95.49
2023-01-03T01:47:20.286Z,94.96
2023-01-03T01:49:49.457Z,94.62
2023-01-03T01:52:17.070Z,94.18
2023-01-03T01:54:44.022Z,94.72
2023-01-03T01:57:13.034Z,94.49
2023-01-03T01:59:39.544Z,94.48
2023-01-03T02:02:06.463Z,94.80
2023-01-03T02:04:35.745Z,94.76
2023-01-03T02:07:03.195Z,94.71
2023-01-03T02:09:32.406Z,94.67
2023-01-03T02:12:28.564Z,94.84
2023-01-03T02:15:07.984Z,94.13
2023-01-03T02:17:43.504Z,94.54
2023-01-03T02:20:19.071Z,94.11
2023-01-03T02:23:13.338Z,94.59
2023-01-03T02:26:13.604Z,94.46
2023-01-03T02:28:50.343Z,94.43
2023-01-03T02:31:25.480Z,94.19
2023-01-03T02:34:17.600Z,94.17
2023-01-03T02:37:00.927Z,93.80
2023-01-03T02:39:40.897Z,94.20
2023-01-03T02:42:47.723Z,94.13
2023-01-03T02:45:19.052Z,94.54
2023-01-03T02:48:01.481Z,94.32
2023-01-03T02:50:31.066Z,94.88
2023-01-03T02:53:02.498Z,95.55
2023-01-03T02:55:30.982Z,95.46
2023-01-03T02:58:06.907Z,96.20
2023-01-03T03:00:34.189Z,97.90
2023-01-03T03:03:06.784Z,98.30
2023-01-03T03:05:39.384Z,99.39
2023-01-03T03:08:07.028Z,99.90
2023-01-03T03:10:52.579Z,99.98
2023-01-03T03:13:45.986Z,100.00
2023-01-03T03:16:20.143Z,100.00
2023-01-03T03:19:00.654Z,100.00
2023-01-03T03:21:51.548Z,100.00
2023-01-03T03:24:40.558Z,100.00
2023-01-03T03:27:28.132Z,100.00
2023-01-03T03:29:56.220Z,100.00
2023-01-03T03:32:24.817Z,100.00
2023-01-03T03:34:53.333Z,100.00
2023-01-03T03:37:22.366Z,100.00
2023-01-03T03:40:07.786Z,100.00
2023-01-03T03:42:57.349Z,100.00
2023-01-03T03:45:30.393Z,100.00
2023-01-03T03:48:03.706Z,100.00
2023-01-03T03:50:46.884Z,100.00
2023-01-03T03:53:14.856Z,100.00
2023-01-03T03:55:45.055Z,100.00
2023-01-03T03:58:16.287Z,100.00
2023-01-03T04:00:43.517Z,100.00
2023-01-03T04:03:10.915Z,100.00
2023-01-03T04:05:40.482Z,100.00
2023-01-03T04:08:07.559Z,100.00
2023-01-03T04:10:38.039Z,100.00
2023-01-03T04:13:05.228Z,100.00
2023-01-03T04:15:31.819Z,100.00
2023-01-03T04:17:58.437Z,100.00
2023-01-03T04:20:25.458Z,100.00
2023-01-03T04:22:51.909Z,100.00
2023-01-03T04:25:18.835Z,100.00
2023-01-03T04:27:45.786Z,100.00
2023-01-03T04:30:13.216Z,100.00
2023-01-03T04:32:39.998Z,100.00
2023-01-03T04:35:07.078Z,99.96
2023-01-03T04:37:33.624Z,99.38
2023-01-03T04:40:00.182Z,99.09
2023-01-03T04:42:45.758Z,98.59
2023-01-03T04:45:12.427Z,97.60
2023-01-03T04:47:39.087Z,97.40
2023-01-03T04:50:06.211Z,96.83
2023-01-03T04:52:32.733Z,96.58
2023-01-03T04:54:59.444Z,96.36
2023-01-03T04:57:26.098Z,95.75
2023-01-03T04:59:52.628Z,94.52
2023-01-03T05:02:21.803Z,94.18
2023-01-03T05:04:48.520Z,94.61
2023-01-03T05:07:15.054Z,95.27
2023-01-03T05:09:41.585Z,95.50
2023-01-03T05:12:08.341Z,96.24
2023-01-03T05:14:35.765Z,97.08
2023-01-03T05:17:02.632Z,97.91
2023-01-03T05:19:29.407Z,96.80
2023-01-03T05:22:14.695Z,97.12
2023-01-03T05:24:59.865Z,97.63
2023-01-03T05:27:26.713Z,97.18
2023-01-03T05:29:53.669Z,98.29
2023-01-03T05:32:20.963Z,98.17
2023-01-03T05:34:47.530Z,98.53
2023-01-03T05:37:14.072Z,99.47
2023-01-03T05:39:40.710Z,100.00
2023-01-03T05:42:07.231Z,99.96
2023-01-03T05:44:34.826Z,100.00
2023-01-03T05:47:03.800Z,100.00
2023-01-03T05:49:30.372Z,100.00
2023-01-03T05:51:56.894Z,100.00
2023-01-03T05:54:23.489Z,100.00
2023-01-03T05:56:51.174Z,100.00
2023-01-03T05:59:19.083Z,100.00
2023-01-03T06:01:45.762Z,100.00
2023-01-03T06:04:12.561Z,100.00
2023-01-03T06:06:39.112Z,100.00
2023-01-03T06:09:06.070Z,100.00
2023-01-03T06:11:32.522Z,100.00
2023-01-03T06:13:59.053Z,100.00
2023-01-03T06:16:44.487Z,100.00
2023-01-03T06:19:11.258Z,100.00
2023-01-03T06:21:38.204Z,100.00
2023-01-03T06:24:05.482Z,100.00
2023-01-03T06:26:32.196Z,100.00
2023-01-03T06:28:59.253Z,100.00
2023-01-03T06:31:26.127Z,100.00
2023-01-03T06:33:52.655Z,100.00
2023-01-03T06:36:21.278Z,100.00
2023-01-03T06:38:47.986Z,100.00
2023-01-03T06:41:15.518Z,100.00
2023-01-03T06:43:42.262Z,100.00
2023-01-03T06:46:28.693Z,100.00
2023-01-03T06:49:13.930Z,100.00
2023-01-03T06:51:59.056Z,100.00
2023-01-03T06:54:27.606Z,100.00
2023-01-03T06:56:54.421Z,100.00
2023-01-03T06:59:21.899Z,100.00
2023-01-03T07:01:49.406Z,100.00
2023-01-03T07:04:16.167Z,100.00
2023-01-03T07:06:43.490Z,100.00
2023-01-03T07:09:11.163Z,100.00
2023-01-03T07:11:39.017Z,100.00
2023-01-03T07:14:06.917Z,100.00
2023-01-03T07:16:38.823Z,100.00
2023-01-03T07:19:06.528Z,100.00
2023-01-03T07:21:34.599Z,100.00
2023-01-03T07:24:02.439Z,100.00
2023-01-03T07:26:30.917Z,100.00
2023-01-03T07:28:58.266Z,100.00
2023-01-03T07:31:25.043Z,100.00
2023-01-03T07:33:53.183Z,100.00
2023-01-03T07:36:22.986Z,100.00
2023-01-03T07:38:49.638Z,100.00
2023-01-03T07:41:16.793Z,100.00
2023-01-03T07:43:45.961Z,100.00
2023-01-03T07:46:17.627Z,100.00
2023-01-03T07:48:46.099Z,100.00
2023-01-03T07:51:14.972Z,100.00
2023-01-03T07:53:41.945Z,100.00
2023-01-03T07:56:13.376Z,100.00
2023-01-03T07:58:44.300Z,100.00
2023-01-03T08:01:22.505Z,100.00
2023-01-03T08:03:49.493Z,100.00
2023-01-03T08:06:21.209Z,100.00
2023-01-03T08:09:07.911Z,100.00
2023-01-03T08:11:53.046Z,100.00
2023-01-03T08:14:25.652Z,100.00
2023-01-03T08:16:53.905Z,100.00
2023-01-03T08:19:20.563Z,100.00
2023-01-03T08:21:47.122Z,100.00
2023-01-03T08:24:16.978Z,100.00
2023-01-03T08:26:47.572Z,100.00
2023-01-03T08:29:14.464Z,100.00
2023-01-03T08:31:45.184Z,100.00
2023-01-03T08:34:18.563Z,100.00
2023-01-03T08:36:50.821Z,100.00
2023-01-03T08:39:20.544Z,100.00
2023-01-03T08:41:55.525Z,100.00
2023-01-03T08:44:22.276Z,100.00
2023-01-03T08:46:51.824Z,100.00
2023-01-03T08:49:21.073Z,100.00
2023-01-03T08:51:47.541Z,100.00
2023-01-03T08:54:14.277Z,100.00
2023-01-03T08:56:42.177Z,100.00
2023-01-03T08:59:08.748Z,100.00
2023-01-03T09:01:35.655Z,100.00
2023-01-03T09:04:02.531Z,100.00
2023-01-03T09:06:29.094Z,100.00
2023-01-03T09:08:55.669Z,99.96
2023-01-03T09:11:22.349Z,98.79
2023-01-03T09:13:48.849Z,97.93
2023-01-03T09:16:16.957Z,96.45
2023-01-03T09:18:43.858Z,91.65
2023-01-03T09:21:10.533Z,85.49
2023-01-03T09:23:37.572Z,76.22
2023-01-03T09:26:05.456Z,67.88
2023-01-03T09:28:32.109Z,68.72
2023-01-03T09:30:58.877Z,70.32
2023-01-03T09:33:25.639Z,72.06
2023-01-03T09:35:54.654Z,72.15
2023-01-03T09:38:22.427Z,69.87
2023-01-03T09:40:57.646Z,68.55
2023-01-03T09:43:33.924Z,61.49
2023-01-03T09:46:02.073Z,55.97
2023-01-03T09:48:36.622Z,48.80
2023-01-03T09:51:25.898Z,48.62
2023-01-03T09:54:11.038Z,51.64
2023-01-03T09:56:56.671Z,51.93
2023-01-03T09:59:41.725Z,53.22
2023-01-03T10:02:52.000Z,49.01
2023-01-03T10:05:53.944Z,43.99
2023-01-03T10:08:39.938Z,42.09
2023-01-03T10:11:09.737Z,36.97
2023-01-03T10:13:48.676Z,42.50
2023-01-03T10:16:35.745Z,49.29
2023-01-03T10:19:27.178Z,50.26
2023-01-03T10:22:04.660Z,48.10
2023-01-03T10:24:34.402Z,50.33
2023-01-03T10:27:08.520Z,53.88
2023-01-03T10:29:35.127Z,56.72
2023-01-03T10:32:08.137Z,57.11
2023-01-03T10:34:34.690Z,57.88
2023-01-03T10:37:01.885Z,52.96
2023-01-03T10:39:31.600Z,42.91
2023-01-03T10:41:59.973Z,39.31
2023-01-03T10:44:31.642Z,42.38
2023-01-03T10:47:15.059Z,44.57
2023-01-03T10:49:44.825Z,45.78
2023-01-03T10:52:19.962Z,48.14
2023-01-03T10:54:49.611Z,51.47
2023-01-03T10:57:43.785Z,55.62
2023-01-03T11:00:31.805Z,53.98
2023-01-03T11:03:27.870Z,49.38
2023-01-03T11:06:00.196Z,44.25
2023-01-03T11:08:47.627Z,44.49
2023-01-03T11:11:32.785Z,46.22
2023-01-03T11:14:17.397Z,52.36
2023-01-03T11:16:44.268Z,57.74
2023-01-03T11:19:16.480Z,58.70
2023-01-03T11:21:50.062Z,59.96
2023-01-03T11:24:30.249Z,62.38
2023-01-03T11:27:08.718Z,63.20
2023-01-03T11:29:51.433Z,64.00
2023-01-03T11:32:24.996Z,64.49
2023-01-03T11:35:24.005Z,61.26
2023-01-03T11:38:11.702Z,60.93
2023-01-03T11:41:00.099Z,61.97
2023-01-03T11:43:42.099Z,62.45
2023-01-03T11:46:40.019Z,61.53
2023-01-03T11:49:24.551Z,62.29
2023-01-03T11:52:20.077Z,64.84
2023-01-03T11:55:23.878Z,65.63
2023-01-03T11:57:56.951Z,65.07
2023-01-03T12:00:34.914Z,65.28
2023-01-03T12:03:02.591Z,64.51
2023-01-03T12:05:49.564Z,65.38
2023-01-03T12:08:30.138Z,64.96
2023-01-03T12:11:15.329Z,65.64
2023-01-03T12:13:49.192Z,65.45
2023-01-03T12:16:26.483Z,66.02
2023-01-03T12:18:59.210Z,66.64
2023-01-03T12:21:41.039Z,66.70
2023-01-03T12:24:33.554Z,66.05
2023-01-03T12:27:13.418Z,66.66
2023-01-03T12:29:46.049Z,67.26
2023-01-03T12:32:17.187Z,67.74
2023-01-03T12:34:50.653Z,67.48
2023-01-03T12:37:23.869Z,66.70
2023-01-03T12:40:01.902Z,68.74
2023-01-03T12:42:36.415Z,69.41
2023-01-03T12:45:14.975Z,70.28
2023-01-03T12:47:50.050Z,70.21
2023-01-03T12:50:30.305Z,70.66
2023-01-03T12:53:34.541Z,70.99
2023-01-03T12:56:38.459Z,71.74
2023-01-03T12:59:29.282Z,71.54
2023-01-03T13:02:07.186Z,72.35
2023-01-03T13:04:35.561Z,72.33
2023-01-03T13:07:02.064Z,72.11
2023-01-03T13:09:57.433Z,71.69
2023-01-03T13:12:29.800Z,69.13
2023-01-03T13:15:06.038Z,68.69
2023-01-03T13:17:43.134Z,68.56
2023-01-03T13:20:33.805Z,67.81
2023-01-03T13:23:01.583Z,68.27
2023-01-03T13:25:34.393Z,68.17
2023-01-03T13:28:05.760Z,68.43
2023-01-03T13:30:34.666Z,68.21
2023-01-03T13:33:24.278Z,67.97
2023-01-03T13:35:59.932Z,69.22
2023-01-03T13:38:32.150Z,69.93
2023-01-03T13:41:18.213Z,71.15
2023-01-03T13:43:49.024Z,71.36
2023-01-03T13:46:29.256Z,71.24
2023-01-03T13:49:04.139Z,72.25
2023-01-03T13:51:55.209Z,72.34
2023-01-03T13:54:21.700Z,71.91
2023-01-03T13:56:48.209Z,73.38
2023-01-03T13:59:14.790Z,73.32
2023-01-03T14:01:47.886Z,74.06
2023-01-03T14:04:33.700Z,75.05
2023-01-03T14:07:37.258Z,75.93
2023-01-03T14:10:24.491Z,78.09
2023-01-03T14:13:28.710Z,78.58
2023-01-03T14:16:16.301Z,80.19
2023-01-03T14:18:49.601Z,80.54
2023-01-03T14:21:41.384Z,81.43
2023-01-03T14:24:16.152Z,82.11
2023-01-03T14:26:42.786Z,81.30
2023-01-03T14:29:19.010Z,81.76
2023-01-03T14:31:48.223Z,83.73
2023-01-03T14:34:35.112Z,83.18
2023-01-03T14:37:22.270Z,83.21
2023-01-03T14:39:55.632Z,82.45
2023-01-03T14:42:22.789Z,83.57
2023-01-03T14:45:16.555Z,83.96
2023-01-03T14:47:43.938Z,84.03
2023-01-03T14:50:21.556Z,85.21
2023-01-03T14:52:52.312Z,85.85
2023-01-03T14:55:21.092Z,86.13
2023-01-03T14:57:49.110Z,86.66
2023-01-03T15:00:28.275Z,87.57
2023-01-03T15:02:59.331Z,87.77
2023-01-03T15:05:35.088Z,88.71
2023-01-03T15:08:22.330Z,88.54
2023-01-03T15:10:54.431Z,89.77
2023-01-03T15:13:28.851Z,90.28
2023-01-03T15:15:57.663Z,89.78
2023-01-03T15:18:25.936Z,90.81
2023-01-03T15:20:54.489Z,90.71
2023-01-03T15:23:39.599Z,90.72
2023-01-03T15:26:39.643Z,91.20
2023-01-03T15:29:06.171Z,91.78
2023-01-03T15:31:38.219Z,91.77
2023-01-03T15:34:29.327Z,92.00
2023-01-03T15:37:03.003Z,92.29
2023-01-03T15:39:41.842Z,93.62
2023-01-03T15:42:50.113Z,94.13
2023-01-03T15:45:22.699Z,93.22
2023-01-03T15:47:50.108Z,93.58
2023-01-03T15:50:19.015Z,94.32
2023-01-03T15:52:46.862Z,94.55
2023-01-03T15:55:14.479Z,95.82
2023-01-03T15:57:41.327Z,96.50
2023-01-03T16:00:10.980Z,96.46
2023-01-03T16:02:37.710Z,96.06
2023-01-03T16:05:04.605Z,96.77
2023-01-03T16:07:31.485Z,96.47
2023-01-03T16:09:58.025Z,96.43
2023-01-03T16:12:33.874Z,96.38
2023-01-03T16:15:00.764Z,96.36
2023-01-03T16:17:28.597Z,95.57
2023-01-03T16:19:56.659Z,95.15
2023-01-03T16:22:34.557Z,95.53
2023-01-03T16:25:02.345Z,96.02
2023-01-03T16:27:29.050Z,96.22
2023-01-03T16:29:55.653Z,96.85
2023-01-03T16:32:26.025Z,97.49
2023-01-03T16:34:52.774Z,96.93
2023-01-03T16:37:19.827Z,97.50
2023-01-03T16:39:48.689Z,98.06
2023-01-03T16:42:15.586Z,99.51
2023-01-03T16:44:49.259Z,99.76
2023-01-03T16:47:20.163Z,100.00
2023-01-03T16:49:50.597Z,100.00
2023-01-03T16:52:23.056Z,100.00
2023-01-03T16:54:50.161Z,100.00
2023-01-03T16:57:21.049Z,100.00
2023-01-03T16:59:48.571Z,100.00
2023-01-03T17:02:15.666Z,100.00
2023-01-03T17:04:42.304Z,100.00
2023-01-03T17:07:23.678Z,100.00
2023-01-03T17:09:51.374Z,100.00
2023-01-03T17:12:21.254Z,100.00
2023-01-03T17:14:52.072Z,100.00
2023-01-03T17:17:21.513Z,100.00
2023-01-03T17:20:06.013Z,100.00
2023-01-03T17:22:33.326Z,100.00
2023-01-03T17:24:59.903Z,100.00
2023-01-03T17:27:31.762Z,100.00
2023-01-03T17:30:02.652Z,100.00
2023-01-03T17:32:30.046Z,100.00
2023-01-03T17:34:56.597Z,100.00
2023-01-03T17:37:23.489Z,100.00
2023-01-03T17:39:55.120Z,100.00
2023-01-03T17:42:22.060Z,100.00
2023-01-03T17:45:09.271Z,100.00
2023-01-03T17:47:58.572Z,100.00
2023-01-03T17:50:25.764Z,100.00
2023-01-03T17:52:55.881Z,100.00
2023-01-03T17:55:25.134Z,100.00
2023-01-03T17:57:51.985Z,100.00
2023-01-03T18:00:21.647Z,100.00
2023-01-03T18:02:48.667Z,100.00
2023-01-03T18:05:21.507Z,100.00
2023-01-03T18:07:53.018Z,100.00
2023-01-03T18:10:26.815Z,100.00
2023-01-03T18:12:53.597Z,100.00
2023-01-03T18:15:21.799Z,100.00
2023-01-03T18:17:48.947Z,100.00
2023-01-03T18:20:17.718Z,100.00
2023-01-03T18:22:45.472Z,100.00
2023-01-03T18:25:22.045Z,100.00
2023-01-03T18:27:54.304Z,100.00
2023-01-03T18:30:21.049Z,100.00
2023-01-03T18:32:47.798Z,100.00
2023-01-03T18:35:20.764Z,100.00
2023-01-03T18:37:53.915Z,100.00
2023-01-03T18:40:23.320Z,100.00
2023-01-03T18:43:08.190Z,100.00
2023-01-03T18:45:35.353Z,100.00
2023-01-03T18:48:02.027Z,100.00
2023-01-03T18:50:28.814Z,100.00
2023-01-03T18:52:56.019Z,100.00
2023-01-03T18:55:25.360Z,100.00
2023-01-03T18:57:52.476Z,100.00
2023-01-03T19:00:21.919Z,100.00
2023-01-03T19:02:49.055Z,100.00
2023-01-03T19:05:15.975Z,99.53
2023-01-03T19:07:43.946Z,99.75
2023-01-03T19:10:22.849Z,99.60
2023-01-03T19:12:51.466Z,99.24
2023-01-03T19:15:24.467Z,99.45
2023-01-03T19:17:51.460Z,99.47
2023-01-03T19:20:23.234Z,98.86
2023-01-03T19:22:53.717Z,98.68
2023-01-03T19:25:24.853Z,98.89
2023-01-03T19:27:53.443Z,98.72
2023-01-03T19:30:24.453Z,98.42
2023-01-03T19:32:53.660Z,98.01
2023-01-03T19:35:21.922Z,97.99
2023-01-03T19:37:48.575Z,98.30
2023-01-03T19:40:17.729Z,98.21
2023-01-03T19:42:50.625Z,97.21
2023-01-03T19:45:43.070Z,97.46
2023-01-03T19:48:19.153Z,96.53
2023-01-03T19:50:46.069Z,96.86
2023-01-03T19:53:12.687Z,97.82
2023-01-03T19:55:41.750Z,97.98
2023-01-03T19:58:29.548Z,97.98
2023-01-03T20:00:56.636Z,98.57
2023-01-03T20:03:36.298Z,98.43
2023-01-03T20:06:03.134Z,99.09
2023-01-03T20:08:29.738Z,99.40
2023-01-03T20:10:56.637Z,99.09
2023-01-03T20:13:25.837Z,99.01
2023-01-03T20:15:55.651Z,98.83
2023-01-03T20:18:30.885Z,98.89
2023-01-03T20:21:05.532Z,98.59
2023-01-03T20:23:35.369Z,98.18
2023-01-03T20:26:02.448Z,98.83
2023-01-03T20:28:29.618Z,98.19
2023-01-03T20:30:59.987Z,98.17
2023-01-03T20:33:27.842Z,98.54
2023-01-03T20:36:20.071Z,98.21
2023-01-03T20:38:45.661Z,98.76
2023-01-03T20:41:14.502Z,98.71
2023-01-03T20:43:44.834Z,98.31
2023-01-03T20:46:20.772Z,98.32
2023-01-03T20:48:56.029Z,98.57
2023-01-03T20:51:24.461Z,98.16
2023-01-03T20:53:54.665Z,98.97
2023-01-03T20:56:22.361Z,98.19
2023-01-03T20:58:49.141Z,97.53
2023-01-03T21:01:15.781Z,97.70
2023-01-03T21:03:42.401Z,97.68
2023-01-03T21:06:23.626Z,96.94
2023-01-03T21:08:56.667Z,97.18
2023-01-03T21:11:27.032Z,96.60
2023-01-03T21:13:54.702Z,96.52
2023-01-03T21:16:29.557Z,96.69
2023-01-03T21:18:56.170Z,96.55
2023-01-03T21:21:23.750Z,95.86
2023-01-03T21:23:50.496Z,95.91
2023-01-03T21:26:17.036Z,96.36
2023-01-03T21:28:43.599Z,95.90
2023-01-03T21:31:17.242Z,96.36
2023-01-03T21:33:43.974Z,96.18
2023-01-03T21:36:21.118Z,95.36
2023-01-03T21:38:49.777Z,95.37
2023-01-03T21:41:20.166Z,95.47
2023-01-03T21:43:46.874Z,95.21
2023-01-03T21:46:21.177Z,94.83
2023-01-03T21:48:47.979Z,95.22
2023-01-03T21:51:20.712Z,94.29
2023-01-03T21:53:53.966Z,94.47
2023-01-03T21:56:23.270Z,94.46
2023-01-03T21:58:50.320Z,93.93
2023-01-03T22:01:23.969Z,94.57
2023-01-03T22:04:10.227Z,94.40
2023-01-03T22:06:37.482Z,94.40
2023-01-03T22:09:06.133Z,93.83
2023-01-03T22:11:32.751Z,93.80
2023-01-03T22:14:00.301Z,94.68
2023-01-03T22:16:27.140Z,94.56
2023-01-03T22:18:53.749Z,93.73
2023-01-03T22:21:21.276Z,93.64
2023-01-03T22:23:47.809Z,93.76
2023-01-03T22:26:15.508Z,93.81
2023-01-03T22:28:44.068Z,93.78
2023-01-03T22:31:16.423Z,93.59
2023-01-03T22:33:44.562Z,92.74
2023-01-03T22:36:11.270Z,93.04
2023-01-03T22:38:38.137Z,93.09
2023-01-03T22:41:14.834Z,92.50
2023-01-03T22:43:41.771Z,92.72
2023-01-03T22:46:10.095Z,92.42
2023-01-03T22:48:37.093Z,92.76
2023-01-03T22:51:05.529Z,92.03
2023-01-03T22:53:39.750Z,92.35
2023-01-03T22:56:08.045Z,92.83
2023-01-03T22:58:35.546Z,93.59
2023-01-03T23:01:16.517Z,93.16
2023-01-03T23:03:44.586Z,93.69
2023-01-03T23:06:15.597Z,93.71
2023-01-03T23:08:42.279Z,93.59
2023-01-03T23:11:33.840Z,93.66
2023-01-03T23:14:06.764Z,93.72
2023-01-03T23:16:33.392Z,93.18
2023-01-03T23:19:03.975Z,93.15
2023-01-03T23:21:30.591Z,93.79
2023-01-03T23:23:57.090Z,94.01
2023-01-03T23:26:23.827Z,93.71
2023-01-03T23:28:57.553Z,93.25
2023-01-03T23:31:26.344Z,93.79
2023-01-03T23:33:57.366Z,93.83
2023-01-03T23:36:24.093Z,94.62
2023-01-03T23:38:50.628Z,94.17
2023-01-03T23:41:17.822Z,95.11
2023-01-03T23:43:44.267Z,95.21
2023-01-03T23:46:18.816Z,94.87
2023-01-03T23:48:45.488Z,94.31
2023-01-03T23:51:12.618Z,95.08
2023-01-03T23:53:41.714Z,95.36
2023-01-03T23:56:11.384Z,95.51
2023-01-03T23:58:37.875Z,96.20
